Main page
METAR-TAF:

METAR-TAF

Airports :

Izmir, Turkey

Adnan Menderes Airport

latitude: 38-16N, longitude: 027-09E, elevation: 125 m

Current weather observation

The report was made 35 minutes ago, at 09:20 UTC
Wind 12 kt from the North
Temperature 18°C
Humidity 52%
Pressure 1018 hPa
Visibility 10 km or more
no clouds below 1500 m and no cumulonimbus

METAR: LTBJ 190920Z 35012KT CAVOK 18/08 Q1018 NOSIG RMK RWY16 35011KT

Time: 12:55 (09:55 UTC)

Forecast

The report was made 5 hours and 15 minutes ago, at 04:40 UTC
Forecast valid from 19 at 06 UTC to 20 at 06 UTC
Wind 14 kt from the North
Visibility 10 km or more
no clouds below 1500 m and no cumulonimbus

TAF: LTBJ 190440Z 1906/2006 35014KT CAVOK

Weather observations and forecasts of more than 4000 airports (METAR and TAF reports).

The available stations are represented by yellow and red dots on the map.

Hover mouse over dot to see the name of the station.

Then click to see weather observations and forecasts.

To change the map : click on the green buttons with a black cross to zoom in, on the green button with a dash to zoom out, or on the green arrows for adjacent maps.


METAR-TAF: